createdAt,value
2022-12-13T00:01:32.616Z,17.73
2022-12-13T00:04:06.092Z,19.13
2022-12-13T00:06:34.743Z,16.63
2022-12-13T00:09:05.054Z,20.03
2022-12-13T00:11:33.217Z,18.60
2022-12-13T00:14:01.936Z,21.33
2022-12-13T00:16:29.964Z,20.27
2022-12-13T00:18:59.785Z,19.00
2022-12-13T00:21:29.209Z,17.53
2022-12-13T00:23:57.894Z,20.50
2022-12-13T00:26:29.077Z,18.33
2022-12-13T00:28:57.585Z,20.53
2022-12-13T00:31:56.885Z,24.63
2022-12-13T00:34:14.475Z,22.20
2022-12-13T00:36:42.492Z,20.17
2022-12-13T00:39:12.829Z,27.77
2022-12-13T00:41:42.114Z,26.27
2022-12-13T00:44:12.248Z,21.43
2022-12-13T00:46:40.697Z,19.80
2022-12-13T00:49:09.017Z,23.93
2022-12-13T00:51:37.180Z,20.87
2022-12-13T00:54:05.453Z,19.87
2022-12-13T00:56:34.612Z,18.27
2022-12-13T00:59:04.067Z,17.03
2022-12-13T01:01:33.892Z,20.50
2022-12-13T01:04:04.176Z,17.70
2022-12-13T01:06:36.235Z,19.10
2022-12-13T01:09:05.987Z,20.97
2022-12-13T01:11:34.357Z,21.90
2022-12-13T01:14:03.839Z,18.97
2022-12-13T01:16:32.031Z,15.97
2022-12-13T01:19:00.022Z,14.03
2022-12-13T01:21:27.959Z,14.83
2022-12-13T01:24:03.083Z,20.73
2022-12-13T01:26:31.606Z,16.37
2022-12-13T01:28:59.910Z,14.00
2022-12-13T01:31:29.568Z,17.10
2022-12-13T01:33:58.221Z,16.53
2022-12-13T01:36:27.420Z,15.77
2022-12-13T01:38:58.600Z,18.30
2022-12-13T01:41:29.108Z,16.20
2022-12-13T01:44:03.200Z,15.43
2022-12-13T01:46:34.428Z,16.40
2022-12-13T01:49:19.418Z,17.03
2022-12-13T01:51:52.928Z,23.10
2022-12-13T01:54:25.523Z,18.00
2022-12-13T01:57:04.769Z,16.43
2022-12-13T01:59:34.599Z,17.07
2022-12-13T02:02:04.828Z,18.77
2022-12-13T02:04:43.690Z,16.77
2022-12-13T02:07:14.158Z,16.60
2022-12-13T02:09:56.698Z,14.73
2022-12-13T02:12:29.380Z,17.43
2022-12-13T02:15:12.056Z,16.17
2022-12-13T02:17:57.383Z,18.70
2022-12-13T02:20:58.770Z,17.17
2022-12-13T02:24:08.757Z,16.10
2022-12-13T02:26:55.694Z,17.47
2022-12-13T02:30:18.213Z,16.87
2022-12-13T02:32:57.726Z,16.67
2022-12-13T02:35:32.541Z,18.90
2022-12-13T02:38:08.555Z,18.60
2022-12-13T02:40:42.602Z,18.10
2022-12-13T02:43:15.966Z,15.33
2022-12-13T02:45:52.218Z,17.13
2022-12-13T02:48:26.989Z,15.17
2022-12-13T02:50:58.392Z,17.50
2022-12-13T02:53:27.766Z,15.90
2022-12-13T02:55:55.798Z,18.90
2022-12-13T02:58:29.802Z,17.77
2022-12-13T03:01:27.854Z,13.87
2022-12-13T03:04:08.218Z,16.07
2022-12-13T03:06:46.879Z,16.70
2022-12-13T03:09:37.251Z,13.80
2022-12-13T03:12:37.306Z,17.27
2022-12-13T03:15:15.572Z,16.13
2022-12-13T03:17:48.683Z,15.10
2022-12-13T03:20:22.923Z,16.30
2022-12-13T03:22:51.917Z,17.07
2022-12-13T03:25:31.639Z,19.73
2022-12-13T03:28:02.159Z,19.40
2022-12-13T03:30:31.292Z,14.97
2022-12-13T03:32:59.355Z,19.20
2022-12-13T03:35:34.913Z,17.30
2022-12-13T03:38:22.555Z,16.93
2022-12-13T03:40:54.086Z,19.17
2022-12-13T03:43:23.233Z,16.90
2022-12-13T03:45:52.110Z,17.83
2022-12-13T03:48:21.712Z,18.10
2022-12-13T03:50:53.987Z,15.80
2022-12-13T03:53:32.669Z,18.53
2022-12-13T03:56:03.683Z,16.83
2022-12-13T03:58:35.777Z,16.13
2022-12-13T04:01:06.680Z,18.43
2022-12-13T04:03:34.943Z,20.13
2022-12-13T04:06:04.449Z,17.00
2022-12-13T04:08:32.465Z,17.40
2022-12-13T04:11:20.538Z,22.97
2022-12-13T04:13:47.515Z,19.70
2022-12-13T04:16:15.640Z,21.70
2022-12-13T04:18:43.777Z,18.17
2022-12-13T04:21:13.100Z,20.23
2022-12-13T04:23:41.042Z,18.13
2022-12-13T04:26:10.371Z,18.87
2022-12-13T04:28:38.326Z,20.70
2022-12-13T04:31:06.567Z,19.43
2022-12-13T04:33:34.579Z,20.27
2022-12-13T04:36:02.511Z,24.30
2022-12-13T04:38:31.795Z,20.00
2022-12-13T04:41:07.247Z,21.00
2022-12-13T04:43:35.631Z,21.50
2022-12-13T04:46:03.689Z,24.70
2022-12-13T04:48:32.537Z,21.63
2022-12-13T04:51:01.590Z,21.63
2022-12-13T04:53:31.324Z,20.43
2022-12-13T04:55:59.878Z,20.23
2022-12-13T04:58:28.864Z,19.80
2022-12-13T05:00:57.145Z,22.47
2022-12-13T05:03:25.259Z,21.70
2022-12-13T05:05:54.278Z,18.10
2022-12-13T05:08:22.263Z,19.10
2022-12-13T05:10:51.538Z,18.60
2022-12-13T05:13:19.507Z,28.77
2022-12-13T05:15:52.092Z,23.97
2022-12-13T05:18:22.989Z,17.27
2022-12-13T05:20:51.987Z,20.57
2022-12-13T05:23:23.027Z,19.90
2022-12-13T05:25:52.904Z,18.63
2022-12-13T05:28:27.605Z,21.37
2022-12-13T05:30:57.544Z,20.13
2022-12-13T05:33:26.224Z,22.93
2022-12-13T05:35:59.780Z,20.30
2022-12-13T05:38:30.149Z,18.97
2022-12-13T05:40:59.725Z,18.37
2022-12-13T05:43:43.128Z,20.47
2022-12-13T05:46:12.558Z,21.40
2022-12-13T05:48:40.844Z,18.13
2022-12-13T05:51:11.062Z,20.60
2022-12-13T05:53:40.850Z,19.37
2022-12-13T05:56:11.034Z,21.10
2022-12-13T05:58:40.042Z,21.70
2022-12-13T06:01:10.718Z,20.93
2022-12-13T06:03:38.843Z,17.57
2022-12-13T06:06:09.013Z,21.23
2022-12-13T06:08:37.653Z,20.47
2022-12-13T06:11:11.099Z,25.93
2022-12-13T06:13:43.601Z,20.07
2022-12-13T06:16:22.034Z,22.00
2022-12-13T06:19:03.744Z,19.90
2022-12-13T06:21:44.201Z,15.50
2022-12-13T06:24:15.373Z,19.30
2022-12-13T06:26:45.650Z,21.40
2022-12-13T06:29:23.884Z,21.10
2022-12-13T06:32:01.672Z,22.23
2022-12-13T06:34:33.399Z,19.83
2022-12-13T06:37:02.858Z,17.43
2022-12-13T06:39:32.487Z,19.53
2022-12-13T06:42:02.656Z,17.20
2022-12-13T06:44:32.012Z,18.83
2022-12-13T06:47:12.050Z,18.73
2022-12-13T06:49:43.349Z,20.93
2022-12-13T06:52:13.165Z,16.50
2022-12-13T06:54:41.707Z,18.97
2022-12-13T06:57:09.870Z,20.67
2022-12-13T06:59:39.504Z,20.23
2022-12-13T07:02:15.481Z,20.37
2022-12-13T07:04:53.701Z,20.77
2022-12-13T07:07:21.704Z,16.40
2022-12-13T07:09:49.604Z,23.07
2022-12-13T07:12:18.575Z,16.23
2022-12-13T07:14:48.200Z,13.20
2022-12-13T07:17:33.170Z,16.90
2022-12-13T07:20:04.637Z,14.37
2022-12-13T07:22:34.555Z,14.13
2022-12-13T07:25:04.801Z,14.33
2022-12-13T07:27:32.923Z,16.63
2022-12-13T07:30:02.665Z,15.70
2022-12-13T07:32:30.661Z,17.50
2022-12-13T07:34:58.603Z,13.13
2022-12-13T07:37:30.431Z,17.57
2022-12-13T07:40:03.965Z,14.40
2022-12-13T07:42:33.013Z,16.57
2022-12-13T07:45:02.372Z,17.07
2022-12-13T07:47:31.183Z,13.57
2022-12-13T07:49:59.189Z,13.77
2022-12-13T07:52:27.192Z,17.73
2022-12-13T07:54:55.574Z,18.30
2022-12-13T07:57:23.532Z,15.17
2022-12-13T07:59:51.476Z,16.93
2022-12-13T08:02:20.694Z,17.10
2022-12-13T08:04:54.779Z,15.00
2022-12-13T08:07:23.382Z,16.10
2022-12-13T08:09:53.134Z,14.90
2022-12-13T08:12:22.339Z,18.60
2022-12-13T08:14:53.070Z,16.73
2022-12-13T08:17:23.125Z,25.00
2022-12-13T08:19:51.173Z,16.03
2022-12-13T08:22:23.752Z,17.70
2022-12-13T08:24:52.655Z,17.57
2022-12-13T08:27:20.596Z,15.93
2022-12-13T08:29:48.715Z,16.30
2022-12-13T08:32:16.660Z,17.73
2022-12-13T08:34:46.593Z,19.73
2022-12-13T08:37:14.829Z,16.63
2022-12-13T08:39:42.760Z,16.50
2022-12-13T08:42:18.227Z,16.30
2022-12-13T08:44:49.134Z,16.80
2022-12-13T08:47:22.982Z,18.37
2022-12-13T08:49:56.131Z,20.90
2022-12-13T08:52:31.462Z,16.03
2022-12-13T08:54:59.435Z,20.57
2022-12-13T08:57:27.383Z,27.13
2022-12-13T08:59:55.482Z,21.00
2022-12-13T09:02:23.508Z,20.70
2022-12-13T09:04:51.460Z,19.37
2022-12-13T09:07:20.773Z,21.77
2022-12-13T09:09:54.663Z,24.53
2022-12-13T09:12:30.481Z,24.40
2022-12-13T09:15:01.190Z,19.83
2022-12-13T09:17:36.735Z,15.97
2022-12-13T09:20:10.047Z,20.10
2022-12-13T09:23:01.568Z,24.50
2022-12-13T09:25:36.534Z,19.60
2022-12-13T09:28:07.981Z,15.77
2022-12-13T09:30:36.090Z,18.13
2022-12-13T09:33:17.873Z,17.90
2022-12-13T09:35:53.752Z,20.10
2022-12-13T09:38:22.995Z,20.37
2022-12-13T09:40:58.475Z,22.27
2022-12-13T09:43:32.604Z,21.47
2022-12-13T09:46:22.100Z,19.53
2022-12-13T09:49:01.401Z,22.07
2022-12-13T09:51:43.879Z,19.47
2022-12-13T09:54:19.621Z,25.40
2022-12-13T09:56:50.900Z,19.13
2022-12-13T09:59:22.445Z,22.60
2022-12-13T10:01:50.591Z,22.17
2022-12-13T10:04:19.860Z,18.47
2022-12-13T10:06:47.978Z,20.63
2022-12-13T10:09:18.686Z,22.07
2022-12-13T10:11:51.811Z,20.30
2022-12-13T10:14:27.152Z,20.33
2022-12-13T10:16:58.809Z,18.90
2022-12-13T10:19:34.399Z,22.77
2022-12-13T10:22:05.677Z,16.60
2022-12-13T10:27:31.007Z,19.63
2022-12-13T10:30:06.465Z,22.20
2022-12-13T10:32:43.069Z,17.90
2022-12-13T10:35:26.210Z,17.33
2022-12-13T10:37:55.579Z,20.07
2022-12-13T10:40:34.057Z,19.53
2022-12-13T10:43:27.410Z,19.97
2022-12-13T10:46:00.787Z,20.90
2022-12-13T10:48:38.444Z,17.97
2022-12-13T10:51:09.666Z,21.13
2022-12-13T10:53:47.120Z,18.17
2022-12-13T10:56:23.685Z,20.60
2022-12-13T10:59:16.889Z,18.73
2022-12-13T11:01:45.979Z,21.40
2022-12-13T11:04:27.731Z,16.33
2022-12-13T11:06:57.007Z,18.53
2022-12-13T11:09:39.114Z,18.67
2022-12-13T11:12:14.594Z,14.27
2022-12-13T11:14:53.898Z,18.70
2022-12-13T11:17:23.929Z,18.23
2022-12-13T11:19:54.659Z,16.00
2022-12-13T11:22:25.324Z,16.70
2022-12-13T11:24:59.842Z,20.30
2022-12-13T11:27:46.499Z,19.90
2022-12-13T11:30:22.054Z,20.53
2022-12-13T11:33:15.264Z,18.60
2022-12-13T11:35:57.775Z,21.17
2022-12-13T11:38:32.251Z,18.63
2022-12-13T11:41:07.453Z,18.60
2022-12-13T11:43:39.217Z,17.53
2022-12-13T11:46:17.153Z,21.03
2022-12-13T11:48:52.512Z,21.57
2022-12-13T11:51:25.616Z,19.93
2022-12-13T11:53:59.347Z,19.23
2022-12-13T11:56:29.516Z,18.50
2022-12-13T11:59:16.307Z,22.97
2022-12-13T12:01:56.584Z,19.53
2022-12-13T12:04:38.890Z,23.53
2022-12-13T12:07:31.668Z,18.83
2022-12-13T12:10:12.191Z,20.50
2022-12-13T12:12:45.059Z,21.97
2022-12-13T12:15:26.503Z,20.80
2022-12-13T12:17:57.096Z,20.30
2022-12-13T12:20:38.208Z,24.63
2022-12-13T12:23:19.190Z,23.03
2022-12-13T12:25:53.946Z,20.73
2022-12-13T12:28:35.433Z,17.70
2022-12-13T12:31:19.900Z,17.43
2022-12-13T12:33:56.183Z,21.67
2022-12-13T12:36:42.604Z,18.67
2022-12-13T12:39:28.101Z,18.37
2022-12-13T12:42:14.262Z,14.17
2022-12-13T12:44:54.249Z,14.40
2022-12-13T12:48:42.652Z,14.63
2022-12-13T12:50:42.769Z,15.30
2022-12-13T12:53:26.022Z,17.23
2022-12-13T12:56:06.456Z,17.10
2022-12-13T12:58:45.534Z,18.43
2022-12-13T13:01:23.108Z,19.93
2022-12-13T13:03:54.449Z,20.63
2022-12-13T13:06:36.074Z,22.70
2022-12-13T13:09:09.174Z,24.50
2022-12-13T13:11:43.226Z,24.30
2022-12-13T13:14:28.181Z,19.77
2022-12-13T13:16:56.814Z,17.07
2022-12-13T13:19:46.139Z,23.97
2022-12-13T13:22:44.195Z,18.50
2022-12-13T13:25:29.252Z,19.70
2022-12-13T13:28:16.414Z,18.37
2022-12-13T13:31:06.332Z,21.63
2022-12-13T13:33:46.567Z,19.27
2022-12-13T13:36:47.976Z,18.40
2022-12-13T13:39:36.937Z,30.17
2022-12-13T13:42:18.340Z,18.17
2022-12-13T13:45:03.100Z,22.80
2022-12-13T13:47:39.978Z,24.53
2022-12-13T13:50:40.592Z,22.03
2022-12-13T13:53:35.506Z,22.83
2022-12-13T13:56:18.291Z,23.93
2022-12-13T13:59:24.783Z,22.73
2022-12-13T14:02:31.816Z,23.43
2022-12-13T14:05:48.095Z,26.20
2022-12-13T14:08:35.646Z,29.17
2022-12-13T14:11:22.265Z,29.00
2022-12-13T14:14:23.417Z,21.20
2022-12-13T14:17:27.316Z,23.27
2022-12-13T14:20:18.680Z,24.40
2022-12-13T14:22:51.704Z,23.77
2022-12-13T14:25:46.391Z,26.23
2022-12-13T14:28:29.493Z,30.37
2022-12-13T14:30:58.001Z,24.77
2022-12-13T14:33:28.163Z,25.80
2022-12-13T14:35:58.636Z,23.20
2022-12-13T14:38:28.549Z,26.33
2022-12-13T14:41:00.032Z,26.83
2022-12-13T14:43:30.827Z,28.00
2022-12-13T14:46:00.454Z,25.20
2022-12-13T14:48:33.746Z,29.33
2022-12-13T14:51:01.913Z,30.47
2022-12-13T14:53:34.592Z,26.20
2022-12-13T14:56:11.270Z,24.70
2022-12-13T14:59:00.190Z,25.97
2022-12-13T15:01:32.382Z,23.93
2022-12-13T15:04:20.436Z,23.97
2022-12-13T15:06:51.283Z,27.07
2022-12-13T15:09:19.749Z,25.53
2022-12-13T15:11:48.027Z,27.47
2022-12-13T15:14:20.731Z,27.40
2022-12-13T15:16:50.732Z,27.67
2022-12-13T15:19:30.287Z,26.77
2022-12-13T15:22:12.665Z,33.27
2022-12-13T15:24:47.121Z,27.43
2022-12-13T15:27:19.489Z,27.63
2022-12-13T15:29:49.886Z,26.37
2022-12-13T15:32:22.631Z,30.30
2022-12-13T15:34:52.123Z,27.03
2022-12-13T15:37:28.307Z,32.00
2022-12-13T15:40:01.707Z,25.73
2022-12-13T15:42:33.380Z,23.93
2022-12-13T15:45:06.243Z,26.43
2022-12-13T15:47:34.576Z,28.80
2022-12-13T15:50:04.659Z,30.77
2022-12-13T15:52:36.344Z,25.90
2022-12-13T15:55:28.467Z,27.07
2022-12-13T15:57:58.710Z,28.13
2022-12-13T16:00:31.070Z,27.00
2022-12-13T16:03:09.085Z,30.93
2022-12-13T16:05:41.243Z,31.83
2022-12-13T16:08:24.564Z,32.43
2022-12-13T16:10:53.927Z,32.50
2022-12-13T16:13:26.435Z,27.87
2022-12-13T16:16:00.272Z,34.03
2022-12-13T16:18:45.717Z,31.07
2022-12-13T16:21:14.363Z,36.97
2022-12-13T16:23:48.535Z,34.80
2022-12-13T16:26:23.607Z,31.63
2022-12-13T16:28:51.797Z,32.33
2022-12-13T16:31:23.210Z,34.93
2022-12-13T16:33:51.316Z,31.20
2022-12-13T16:36:19.373Z,41.53
2022-12-13T16:38:47.417Z,73.37
2022-12-13T16:41:16.224Z,57.30
2022-12-13T16:43:52.284Z,33.87
2022-12-13T16:47:14.340Z,29.10
2022-12-13T16:49:19.987Z,29.17
2022-12-13T16:51:48.926Z,35.93
2022-12-13T16:54:17.738Z,26.93
2022-12-13T16:56:46.022Z,33.03
2022-12-13T16:59:15.632Z,31.80
2022-12-13T17:01:47.965Z,31.17
2022-12-13T17:04:21.037Z,35.80
2022-12-13T17:06:50.092Z,30.13
2022-12-13T17:09:18.760Z,30.50
2022-12-13T17:11:47.119Z,32.37
2022-12-13T17:14:15.629Z,35.57
2022-12-13T17:16:43.612Z,30.80
2022-12-13T17:19:15.397Z,33.60
2022-12-13T17:21:43.602Z,38.03
2022-12-13T17:24:12.572Z,43.03
2022-12-13T17:26:41.145Z,44.73
2022-12-13T17:29:22.166Z,44.13
2022-12-13T17:31:50.186Z,36.07
2022-12-13T17:34:19.743Z,35.33
2022-12-13T17:36:47.798Z,34.43
2022-12-13T17:39:15.794Z,35.47
2022-12-13T17:41:43.918Z,35.47
2022-12-13T17:44:23.236Z,37.30
2022-12-13T17:46:54.570Z,38.57
2022-12-13T17:49:24.995Z,40.07
2022-12-13T17:51:54.114Z,40.80
2022-12-13T17:54:23.513Z,37.83
2022-12-13T17:56:52.327Z,37.73
2022-12-13T17:59:21.163Z,37.57
2022-12-13T18:01:49.450Z,39.23
2022-12-13T18:04:18.056Z,39.03
2022-12-13T18:06:47.793Z,42.00
2022-12-13T18:09:16.068Z,43.90
2022-12-13T18:11:44.353Z,50.27
2022-12-13T18:14:12.618Z,41.87
2022-12-13T18:16:41.434Z,38.40
2022-12-13T18:19:12.453Z,43.07
2022-12-13T18:21:41.025Z,43.23
2022-12-13T18:24:12.023Z,47.50
2022-12-13T18:26:40.566Z,39.77
2022-12-13T18:29:08.875Z,40.90
2022-12-13T18:31:39.893Z,42.27
2022-12-13T18:34:09.029Z,41.50
2022-12-13T18:36:39.581Z,47.07
2022-12-13T18:39:07.973Z,106.67
2022-12-13T18:41:37.782Z,140.23
2022-12-13T18:44:08.258Z,114.10
2022-12-13T18:46:38.105Z,52.93
2022-12-13T18:49:07.773Z,40.97
2022-12-13T18:51:36.287Z,41.53
2022-12-13T18:54:04.838Z,42.87
2022-12-13T18:56:33.113Z,44.17
2022-12-13T18:59:02.864Z,48.27
2022-12-13T19:01:31.351Z,47.83
2022-12-13T19:03:59.802Z,43.37
2022-12-13T19:06:29.548Z,46.63
2022-12-13T19:08:59.305Z,43.03
2022-12-13T19:11:28.895Z,51.43
2022-12-13T19:13:57.884Z,50.50
2022-12-13T19:16:28.138Z,44.97
2022-12-13T19:18:56.521Z,50.43
2022-12-13T19:21:24.854Z,52.63
2022-12-13T19:23:57.836Z,46.40
2022-12-13T19:26:28.230Z,54.03
2022-12-13T19:28:58.172Z,51.23
2022-12-13T19:31:32.379Z,50.10
2022-12-13T19:34:01.660Z,54.50
2022-12-13T19:36:30.328Z,59.23
2022-12-13T19:38:58.876Z,53.57
2022-12-13T19:41:27.387Z,60.73
2022-12-13T19:43:55.768Z,51.63
2022-12-13T19:46:24.214Z,47.27
2022-12-13T19:48:54.129Z,52.67
2022-12-13T19:51:22.859Z,48.27
2022-12-13T19:53:51.286Z,52.03
2022-12-13T19:56:21.948Z,49.60
2022-12-13T19:58:51.334Z,47.77
2022-12-13T20:01:20.039Z,53.00
2022-12-13T20:03:48.592Z,49.67
2022-12-13T20:06:19.634Z,47.13
2022-12-13T20:08:47.869Z,48.63
2022-12-13T20:11:20.299Z,52.93
2022-12-13T20:13:48.978Z,50.37
2022-12-13T20:16:18.467Z,49.40
2022-12-13T20:18:47.260Z,58.47
2022-12-13T20:21:17.096Z,46.30
2022-12-13T20:23:49.005Z,48.73
2022-12-13T20:26:20.119Z,47.93
2022-12-13T20:28:49.020Z,43.03
2022-12-13T20:31:19.945Z,58.33
2022-12-13T20:33:48.687Z,58.27
2022-12-13T20:36:25.287Z,52.10
2022-12-13T20:38:55.966Z,49.43
2022-12-13T20:41:25.382Z,46.90
2022-12-13T20:43:54.112Z,49.03
2022-12-13T20:46:23.466Z,56.13
2022-12-13T20:48:52.491Z,49.97
2022-12-13T20:51:24.477Z,48.30
2022-12-13T20:53:53.463Z,47.00
2022-12-13T20:56:23.718Z,45.00
2022-12-13T20:58:52.004Z,45.80
2022-12-13T21:01:21.488Z,56.70
2022-12-13T21:03:49.466Z,55.47
2022-12-13T21:06:17.555Z,63.23
2022-12-13T21:08:52.701Z,59.10
2022-12-13T21:11:28.907Z,63.03
2022-12-13T21:14:05.320Z,57.70
2022-12-13T21:16:38.470Z,56.70
2022-12-13T21:19:09.674Z,63.07
2022-12-13T21:21:38.314Z,52.43
2022-12-13T21:24:08.438Z,61.37
2022-12-13T21:26:36.744Z,53.20
2022-12-13T21:29:07.675Z,59.57
2022-12-13T21:31:36.877Z,64.77
2022-12-13T21:34:06.792Z,62.23
2022-12-13T21:36:36.781Z,58.43
2022-12-13T21:39:08.623Z,60.03
2022-12-13T21:41:36.663Z,58.23
2022-12-13T21:44:05.185Z,54.93
2022-12-13T21:47:10.092Z,60.43
2022-12-13T21:49:21.427Z,54.77
2022-12-13T21:51:49.426Z,64.47
2022-12-13T21:54:19.212Z,59.70
2022-12-13T21:57:04.595Z,55.07
2022-12-13T21:59:32.725Z,59.80
2022-12-13T22:02:14.725Z,61.37
2022-12-13T22:04:44.983Z,67.53
2022-12-13T22:07:14.690Z,59.97
2022-12-13T22:09:44.219Z,58.43
2022-12-13T22:12:20.195Z,62.10
2022-12-13T22:14:48.504Z,66.20
2022-12-13T22:17:16.771Z,71.13
2022-12-13T22:19:48.780Z,66.67
2022-12-13T22:22:17.687Z,71.57
2022-12-13T22:24:53.201Z,63.93
2022-12-13T22:27:25.319Z,63.20
2022-12-13T22:29:55.190Z,63.87
2022-12-13T22:32:23.597Z,65.50
2022-12-13T22:34:53.209Z,66.93
2022-12-13T22:37:21.413Z,67.70
2022-12-13T22:39:51.256Z,68.50
2022-12-13T22:42:20.286Z,68.57
2022-12-13T22:44:48.707Z,65.80
2022-12-13T22:47:16.854Z,68.67
2022-12-13T22:49:44.895Z,71.33
2022-12-13T22:52:16.930Z,64.70
2022-12-13T22:54:44.901Z,65.50
2022-12-13T22:57:14.275Z,75.40
2022-12-13T22:59:42.275Z,77.20
2022-12-13T23:02:10.525Z,72.93
2022-12-13T23:04:38.688Z,68.03
2022-12-13T23:07:06.780Z,78.37
2022-12-13T23:09:34.849Z,72.90
2022-12-13T23:12:20.374Z,81.83
2022-12-13T23:14:49.660Z,71.77
2022-12-13T23:17:18.073Z,73.33
2022-12-13T23:19:51.577Z,76.70
2022-12-13T23:22:21.913Z,74.40
2022-12-13T23:24:50.394Z,73.47
2022-12-13T23:27:18.484Z,81.83
2022-12-13T23:29:46.666Z,70.37
2022-12-13T23:32:16.663Z,85.37
2022-12-13T23:34:44.618Z,71.87
2022-12-13T23:37:12.642Z,79.87
2022-12-13T23:39:41.518Z,76.70
2022-12-13T23:42:09.572Z,73.20
2022-12-13T23:44:37.870Z,80.10
2022-12-13T23:47:05.924Z,84.57
2022-12-13T23:49:35.278Z,73.03
2022-12-13T23:52:03.308Z,76.93
2022-12-13T23:54:31.313Z,81.03
2022-12-13T23:56:59.242Z,68.03
2022-12-13T23:59:28.791Z,70.53
